Terminal Aerodrome Forecast
Issued by NWS Kansas City/Pleasant Hill, MO

Home | Current Version | Previous Version | Text Only | Print | Product List | Glossary On
Versions: 1 2 3 4 5 6 7 8 9 10 11 12
624
FTUS43 KEAX 192333
TAFMCI
TAF
KMCI 192333Z 2000/2024 10006KT P6SM FEW250
     FM201500 13011KT P6SM BKN250=

USA.gov is the U.S. government's official web portal to all federal, state and local government web resources and services.